createdAt,value
2017-07-25T00:00:07.605Z,17.84
2017-07-25T00:00:52.976Z,17.89
2017-07-25T00:01:53.012Z,17.89
2017-07-25T00:02:53.040Z,17.87
2017-07-25T00:03:53.066Z,17.9
2017-07-25T00:04:53.075Z,17.86
2017-07-25T00:05:53.116Z,17.81
2017-07-25T00:06:53.122Z,17.81
2017-07-25T00:07:52.861Z,17.78
2017-07-25T00:10:07.810Z,17.86
2017-07-25T00:10:53.219Z,17.86
2017-07-25T00:11:52.955Z,17.81
2017-07-25T00:12:53.534Z,17.81
2017-07-25T00:13:53.309Z,17.84
2017-07-25T00:14:53.308Z,17.74
2017-07-25T00:15:53.369Z,17.78
2017-07-25T00:16:53.381Z,17.75
2017-07-25T00:17:53.402Z,17.84
2017-07-25T00:18:53.416Z,17.71
2017-07-25T00:19:53.462Z,17.7
2017-07-25T00:21:08.085Z,17.74
2017-07-25T00:21:53.493Z,17.74
2017-07-25T00:22:53.539Z,17.64
2017-07-25T00:23:53.553Z,17.78
2017-07-25T00:24:53.583Z,17.75
2017-07-25T00:26:08.199Z,17.68
2017-07-25T00:26:53.630Z,17.75
2017-07-25T00:27:53.663Z,17.75
2017-07-25T00:28:53.670Z,17.81
2017-07-25T00:29:53.698Z,17.79
2017-07-25T00:30:53.710Z,17.75
2017-07-25T00:32:08.348Z,17.68
2017-07-25T00:32:53.761Z,17.77
2017-07-25T00:33:53.808Z,17.71
2017-07-25T00:34:53.864Z,17.79
2017-07-25T00:35:53.836Z,17.75
2017-07-25T00:36:53.860Z,17.71
2017-07-25T00:37:53.899Z,17.74
2017-07-25T00:38:53.907Z,17.71
2017-07-25T00:39:53.946Z,17.81
2017-07-25T00:40:53.652Z,17.77
2017-07-25T00:41:53.682Z,17.79
2017-07-25T00:42:53.992Z,17.75
2017-07-25T00:43:53.423Z,17.74
2017-07-25T00:44:54.072Z,17.75
2017-07-25T00:45:54.087Z,17.74
2017-07-25T00:46:53.786Z,17.82
2017-07-25T00:48:08.724Z,17.79
2017-07-25T00:48:54.169Z,17.78
2017-07-25T00:49:54.181Z,17.81
2017-07-25T00:50:54.233Z,17.78
2017-07-25T00:51:54.246Z,17.71
2017-07-25T00:52:54.250Z,17.72
2017-07-25T00:53:54.269Z,17.78
2017-07-25T00:54:53.992Z,17.79
2017-07-25T00:55:54.336Z,17.7
2017-07-25T00:56:54.346Z,17.64
2017-07-25T00:57:54.386Z,17.74
2017-07-25T00:58:54.423Z,17.7
2017-07-25T00:59:54.426Z,17.62
2017-07-25T01:02:54.508Z,17.63
2017-07-25T01:04:54.550Z,17.71
2017-07-25T01:05:54.267Z,17.72
2017-07-25T01:06:54.277Z,17.71
2017-07-25T01:07:54.630Z,17.71
2017-07-25T01:08:54.631Z,17.72
2017-07-25T01:09:54.671Z,17.63
2017-07-25T01:10:54.743Z,17.64
2017-07-25T01:11:54.727Z,17.66
2017-07-25T01:12:54.743Z,17.7
2017-07-25T01:13:54.758Z,17.68
2017-07-25T01:14:54.800Z,17.68
2017-07-25T01:15:54.813Z,17.71
2017-07-25T01:16:54.845Z,17.78
2017-07-25T01:17:54.853Z,17.7
2017-07-25T01:18:54.941Z,17.81
2017-07-25T01:20:09.504Z,17.82
2017-07-25T01:20:54.995Z,17.81
2017-07-25T01:22:09.551Z,17.81
2017-07-25T01:23:09.579Z,17.74
2017-07-25T01:23:55.010Z,17.72
2017-07-25T01:24:55.040Z,17.62
2017-07-25T01:25:55.057Z,17.7
2017-07-25T01:27:55.112Z,17.56
2017-07-25T01:28:55.128Z,17.58
2017-07-25T01:29:55.162Z,17.54
2017-07-25T01:30:55.174Z,17.62
2017-07-25T01:31:55.216Z,17.58
2017-07-25T01:32:54.927Z,17.52
2017-07-25T01:33:55.250Z,17.55
2017-07-25T01:35:09.880Z,17.49
2017-07-25T01:35:55.313Z,17.48
2017-07-25T01:36:55.376Z,17.44
2017-07-25T01:37:55.047Z,17.52
2017-07-25T01:38:55.416Z,17.43
2017-07-25T01:39:55.421Z,17.48
2017-07-25T01:40:54.791Z,17.52
2017-07-25T01:41:55.452Z,17.38
2017-07-25T01:42:55.452Z,17.51
2017-07-25T01:44:10.094Z,17.4
2017-07-25T01:45:10.117Z,17.48
2017-07-25T01:45:55.540Z,17.34
2017-07-25T01:46:55.567Z,17.28
2017-07-25T01:47:55.589Z,17.3
2017-07-25T01:48:55.625Z,17.28
2017-07-25T01:49:55.327Z,17.28
2017-07-25T01:50:55.679Z,17.28
2017-07-25T01:51:55.677Z,17.26
2017-07-25T01:53:55.739Z,17.26
2017-07-25T01:54:55.769Z,17.21
2017-07-25T01:55:55.803Z,17.26
2017-07-25T01:57:10.413Z,17.28
2017-07-25T01:57:55.840Z,17.26
2017-07-25T01:58:55.865Z,17.22
2017-07-25T01:59:55.875Z,17.22
2017-07-25T02:01:10.508Z,17.19
2017-07-25T02:01:55.918Z,17.15
2017-07-25T02:02:55.938Z,17.18
2017-07-25T02:04:55.995Z,17.08
2017-07-25T02:05:56.034Z,17.15
2017-07-25T02:07:10.635Z,17.08
2017-07-25T02:07:55.772Z,16.98
2017-07-25T02:08:56.088Z,16.98
2017-07-25T02:09:56.134Z,16.94
2017-07-25T02:10:56.146Z,16.93
2017-07-25T02:11:55.872Z,16.85
2017-07-25T02:12:56.203Z,16.88
2017-07-25T02:13:56.227Z,16.88
2017-07-25T02:14:56.239Z,16.85
2017-07-25T02:15:56.256Z,16.83
2017-07-25T02:16:55.986Z,16.78
2017-07-25T02:17:56.308Z,16.75
2017-07-25T02:18:56.349Z,16.76
2017-07-25T02:19:56.042Z,16.82
2017-07-25T02:20:56.396Z,16.88
2017-07-25T02:21:56.100Z,16.88
2017-07-25T02:23:11.025Z,16.91
2017-07-25T02:23:56.465Z,16.91
2017-07-25T02:24:56.491Z,16.91
2017-07-25T02:25:56.199Z,16.86
2017-07-25T02:26:56.540Z,16.93
2017-07-25T02:27:56.560Z,16.93
2017-07-25T02:28:56.629Z,16.91
2017-07-25T02:29:56.616Z,16.82
2017-07-25T02:30:56.631Z,16.86
2017-07-25T02:31:56.647Z,16.83
2017-07-25T02:32:56.376Z,16.85
2017-07-25T02:33:56.684Z,16.85
2017-07-25T02:34:56.728Z,16.85
2017-07-25T02:35:56.759Z,16.83
2017-07-25T02:36:56.758Z,16.85
2017-07-25T02:37:56.801Z,16.83
2017-07-25T02:39:11.108Z,16.78
2017-07-25T02:39:56.847Z,16.82
2017-07-25T02:40:56.846Z,16.78
2017-07-25T02:41:56.920Z,16.79
2017-07-25T02:42:56.922Z,16.83
2017-07-25T02:43:56.940Z,16.88
2017-07-25T02:44:56.944Z,16.83
2017-07-25T02:45:56.992Z,16.83
2017-07-25T02:46:57.012Z,16.82
2017-07-25T02:48:11.635Z,16.71
2017-07-25T02:48:57.073Z,16.64
2017-07-25T02:49:57.068Z,16.66
2017-07-25T02:51:57.132Z,16.67
2017-07-25T02:52:57.158Z,16.67
2017-07-25T02:54:11.467Z,16.56
2017-07-25T02:55:11.801Z,16.56
2017-07-25T02:55:57.207Z,16.67
2017-07-25T02:56:56.945Z,16.68
2017-07-25T02:57:57.265Z,16.7
2017-07-25T02:58:57.306Z,16.66
2017-07-25T02:59:57.320Z,16.7
2017-07-25T03:00:57.349Z,16.64
2017-07-25T03:01:57.044Z,16.61
2017-07-25T03:03:57.422Z,16.71
2017-07-25T03:04:56.822Z,16.63
2017-07-25T03:06:12.059Z,16.7
2017-07-25T03:06:57.501Z,16.73
2017-07-25T03:07:57.500Z,16.66
2017-07-25T03:08:57.227Z,16.7
2017-07-25T03:10:12.156Z,16.7
2017-07-25T03:10:57.265Z,16.68
2017-07-25T03:11:57.296Z,16.67
2017-07-25T03:12:57.620Z,16.67
2017-07-25T03:14:12.262Z,16.7
2017-07-25T03:15:12.265Z,16.75
2017-07-25T03:15:57.708Z,16.66
2017-07-25T03:17:57.755Z,16.66
2017-07-25T03:18:57.763Z,16.67
2017-07-25T03:19:57.854Z,16.68
2017-07-25T03:20:57.825Z,16.64
2017-07-25T03:21:57.855Z,16.71
2017-07-25T03:22:57.864Z,16.63
2017-07-25T03:23:57.891Z,16.63
2017-07-25T03:24:57.914Z,16.6
2017-07-25T03:25:57.990Z,16.6
2017-07-25T03:26:57.972Z,16.7
2017-07-25T03:27:57.981Z,16.7
2017-07-25T03:28:57.698Z,16.6
2017-07-25T03:29:58.029Z,16.64
2017-07-25T03:30:58.067Z,16.6
2017-07-25T03:31:58.076Z,16.56
2017-07-25T03:32:58.112Z,16.57
2017-07-25T03:33:58.113Z,16.56
2017-07-25T03:34:58.159Z,16.52
2017-07-25T03:35:58.166Z,16.61
2017-07-25T03:36:58.189Z,16.63
2017-07-25T03:37:58.208Z,16.64
2017-07-25T03:38:58.247Z,16.66
2017-07-25T03:39:58.329Z,16.64
2017-07-25T03:40:58.294Z,16.6
2017-07-25T03:42:12.918Z,16.64
2017-07-25T03:42:58.339Z,16.64
2017-07-25T03:43:58.373Z,16.58
2017-07-25T03:44:58.073Z,16.61
2017-07-25T03:45:58.409Z,16.68
2017-07-25T03:47:13.030Z,16.64
2017-07-25T03:48:13.066Z,16.64
2017-07-25T03:48:58.490Z,16.64
2017-07-25T03:50:58.522Z,16.7
2017-07-25T03:51:58.572Z,16.61
2017-07-25T03:52:58.576Z,16.63
2017-07-25T03:53:58.610Z,16.67
2017-07-25T03:55:58.647Z,16.64
2017-07-25T03:56:58.689Z,16.63
2017-07-25T03:58:13.292Z,16.5
2017-07-25T03:58:58.729Z,16.53
2017-07-25T03:59:58.730Z,16.56
2017-07-25T04:00:58.497Z,16.53
2017-07-25T04:01:58.811Z,16.48
2017-07-25T04:02:58.820Z,16.57
2017-07-25T04:04:13.446Z,16.49
2017-07-25T04:05:58.896Z,16.56
2017-07-25T04:07:13.512Z,16.53
2017-07-25T04:07:58.972Z,16.6
2017-07-25T04:08:58.965Z,16.56
2017-07-25T04:09:58.985Z,16.49
2017-07-25T04:10:59.009Z,16.48
2017-07-25T04:11:59.023Z,16.6
2017-07-25T04:12:59.064Z,16.49
2017-07-25T04:14:13.371Z,16.49
2017-07-25T04:14:59.099Z,16.53
2017-07-25T04:15:59.131Z,16.53
2017-07-25T04:17:59.164Z,16.57
2017-07-25T04:18:59.208Z,16.46
2017-07-25T04:19:59.208Z,16.6
2017-07-25T04:20:59.244Z,16.52
2017-07-25T04:21:59.268Z,16.5
2017-07-25T04:24:59.331Z,16.52
2017-07-25T04:26:59.384Z,16.52
2017-07-25T04:27:59.107Z,16.49
2017-07-25T04:28:59.491Z,16.57
2017-07-25T04:30:14.050Z,16.45
2017-07-25T04:30:59.163Z,16.46
2017-07-25T04:31:59.502Z,16.49
2017-07-25T04:32:59.542Z,16.43
2017-07-25T04:34:13.834Z,16.39
2017-07-25T04:35:59.608Z,16.48
2017-07-25T04:36:59.624Z,16.35
2017-07-25T04:37:59.662Z,16.34
2017-07-25T04:39:59.696Z,16.42
2017-07-25T04:40:59.726Z,16.49
2017-07-25T04:41:59.748Z,16.39
2017-07-25T04:42:59.756Z,16.38
2017-07-25T04:43:59.801Z,16.45
2017-07-25T04:45:14.407Z,16.49
2017-07-25T04:45:59.533Z,16.52
2017-07-25T04:46:59.847Z,16.56
2017-07-25T04:47:59.898Z,16.49
2017-07-25T04:48:59.896Z,16.49
2017-07-25T04:49:59.924Z,16.5
2017-07-25T04:50:59.964Z,16.5
2017-07-25T04:51:59.670Z,16.49
2017-07-25T04:53:00.019Z,16.46
2017-07-25T04:54:00.019Z,16.43
2017-07-25T04:54:59.739Z,16.53
2017-07-25T04:56:00.068Z,16.52
2017-07-25T04:57:00.095Z,16.45
2017-07-25T04:58:00.119Z,16.46
2017-07-25T04:58:59.837Z,16.53
2017-07-25T05:00:14.778Z,16.53
2017-07-25T05:01:00.182Z,16.46
2017-07-25T05:01:59.905Z,16.45
2017-07-25T05:02:59.973Z,16.52
2017-07-25T05:05:00.286Z,16.56
2017-07-25T05:06:00.002Z,16.49
2017-07-25T05:07:00.330Z,16.57
2017-07-25T05:08:00.359Z,16.5
2017-07-25T05:09:00.383Z,16.57
2017-07-25T05:10:00.101Z,16.52
2017-07-25T05:11:00.419Z,16.53
2017-07-25T05:12:15.049Z,16.52
2017-07-25T05:13:00.473Z,16.56
2017-07-25T05:14:00.504Z,16.56
2017-07-25T05:15:00.525Z,16.63
2017-07-25T05:16:00.556Z,16.64
2017-07-25T05:17:15.221Z,16.6
2017-07-25T05:18:15.188Z,16.58
2017-07-25T05:19:00.619Z,16.63
2017-07-25T05:20:15.232Z,16.63
2017-07-25T05:21:00.678Z,16.53
2017-07-25T05:22:00.669Z,16.56
2017-07-25T05:23:15.316Z,16.6
2017-07-25T05:25:00.751Z,16.56
2017-07-25T05:26:00.480Z,16.52
2017-07-25T05:27:00.481Z,16.56
2017-07-25T05:28:00.837Z,16.49
2017-07-25T05:29:00.858Z,16.45
2017-07-25T05:30:00.884Z,16.49
2017-07-25T05:31:00.894Z,16.5
2017-07-25T05:32:00.934Z,16.48
2017-07-25T05:33:15.239Z,16.52
2017-07-25T05:35:01.008Z,16.49
2017-07-25T05:36:01.027Z,16.57
2017-07-25T05:37:01.056Z,16.49
2017-07-25T05:38:01.076Z,16.53
2017-07-25T05:39:00.779Z,16.43
2017-07-25T05:40:01.133Z,16.5
2017-07-25T05:41:01.179Z,16.46
2017-07-25T05:42:01.167Z,16.43
2017-07-25T05:43:01.185Z,16.45
2017-07-25T05:44:00.898Z,16.41
2017-07-25T05:46:01.266Z,16.5
2017-07-25T05:47:00.985Z,16.35
2017-07-25T05:50:01.349Z,16.33
2017-07-25T05:51:01.368Z,16.3
2017-07-25T05:52:01.408Z,16.28
2017-07-25T05:53:01.113Z,16.28
2017-07-25T05:54:01.145Z,16.3
2017-07-25T05:55:01.474Z,16.41
2017-07-25T05:56:01.485Z,16.39
2017-07-25T05:57:01.508Z,16.48
2017-07-25T05:58:01.562Z,16.38
2017-07-25T05:59:01.265Z,16.34
2017-07-25T06:00:01.577Z,16.35
2017-07-25T06:01:01.669Z,16.33
2017-07-25T06:02:01.311Z,16.48
2017-07-25T06:03:01.349Z,16.33
2017-07-25T06:04:01.682Z,16.31
2017-07-25T06:05:15.997Z,16.43
2017-07-25T06:06:01.725Z,16.33
2017-07-25T06:07:16.359Z,16.27
2017-07-25T06:08:01.768Z,16.31
2017-07-25T06:09:01.852Z,16.46
2017-07-25T06:10:01.815Z,16.43
2017-07-25T06:11:01.849Z,16.33
2017-07-25T06:12:01.558Z,16.42
2017-07-25T06:13:01.903Z,16.38
2017-07-25T06:14:01.918Z,16.35
2017-07-25T06:15:01.940Z,16.34
2017-07-25T06:16:01.985Z,16.41
2017-07-25T06:17:01.996Z,16.52
2017-07-25T06:18:01.706Z,16.49
2017-07-25T06:19:01.728Z,16.42
2017-07-25T06:20:16.666Z,16.45
2017-07-25T06:21:02.125Z,16.49
2017-07-25T06:22:01.793Z,16.35
2017-07-25T06:23:02.139Z,16.41
2017-07-25T06:24:02.154Z,16.38
2017-07-25T06:26:02.210Z,16.42
2017-07-25T06:27:02.234Z,16.39
2017-07-25T06:28:16.852Z,16.41
2017-07-25T06:29:02.265Z,16.35
2017-07-25T06:30:02.302Z,16.46
2017-07-25T06:31:02.006Z,16.34
2017-07-25T06:32:02.363Z,16.39
2017-07-25T06:33:02.377Z,16.35
2017-07-25T06:35:02.428Z,16.35
2017-07-25T06:36:02.453Z,16.43
2017-07-25T06:37:02.457Z,16.43
2017-07-25T06:38:02.487Z,16.39
2017-07-25T06:39:02.502Z,16.39
2017-07-25T06:40:02.543Z,16.24
2017-07-25T06:41:02.564Z,16.25
2017-07-25T06:42:02.585Z,16.39
2017-07-25T06:44:02.642Z,16.31
2017-07-25T06:45:02.656Z,16.39
2017-07-25T06:46:02.365Z,16.39
2017-07-25T06:47:02.712Z,16.5
2017-07-25T06:48:02.704Z,16.43
2017-07-25T06:49:02.746Z,16.41
2017-07-25T06:51:02.787Z,16.41
2017-07-25T06:52:17.422Z,16.45
2017-07-25T06:53:02.851Z,16.42
2017-07-25T06:54:02.874Z,16.39
2017-07-25T06:55:02.889Z,16.45
2017-07-25T06:56:02.909Z,16.31
2017-07-25T06:57:02.940Z,16.41
2017-07-25T06:58:02.956Z,16.3
2017-07-25T06:59:02.967Z,16.3
2017-07-25T07:00:03.007Z,16.41
2017-07-25T07:01:02.919Z,16.49
2017-07-25T07:02:03.064Z,16.42
2017-07-25T07:03:03.084Z,16.3
2017-07-25T07:04:03.103Z,16.24
2017-07-25T07:05:02.868Z,16.33
2017-07-25T07:06:02.833Z,16.3
2017-07-25T07:07:03.189Z,16.27
2017-07-25T07:08:17.487Z,16.38
2017-07-25T07:09:03.230Z,16.35
2017-07-25T07:10:03.236Z,16.28
2017-07-25T07:11:03.277Z,16.34
2017-07-25T07:12:02.973Z,16.43
2017-07-25T07:13:03.372Z,16.41
2017-07-25T07:14:03.016Z,16.31
2017-07-25T07:16:03.406Z,16.27
2017-07-25T07:17:03.403Z,16.38
2017-07-25T07:18:18.036Z,16.25
2017-07-25T07:20:03.488Z,16.35
2017-07-25T07:21:03.563Z,16.33
2017-07-25T07:22:03.509Z,16.33
2017-07-25T07:23:03.562Z,16.33
2017-07-25T07:24:17.870Z,16.35
2017-07-25T07:25:03.604Z,16.43
2017-07-25T07:26:03.629Z,16.31
2017-07-25T07:27:03.737Z,16.33
2017-07-25T07:28:03.661Z,16.28
2017-07-25T07:29:03.700Z,16.27
2017-07-25T07:30:03.724Z,16.31
2017-07-25T07:31:03.750Z,16.3
2017-07-25T07:32:03.441Z,16.39
2017-07-25T07:33:03.793Z,16.33
2017-07-25T07:34:03.820Z,16.33
2017-07-25T07:35:03.825Z,16.35
2017-07-25T07:36:03.911Z,16.33
2017-07-25T07:37:03.889Z,16.28
2017-07-25T07:38:03.918Z,16.41
2017-07-25T07:39:03.918Z,16.42
2017-07-25T07:40:18.554Z,16.39
2017-07-25T07:41:03.674Z,16.39
2017-07-25T07:42:04.018Z,16.45
2017-07-25T07:43:04.069Z,16.45
2017-07-25T07:44:04.036Z,16.38
2017-07-25T07:45:04.128Z,16.39
2017-07-25T07:46:03.785Z,16.34
2017-07-25T07:48:04.132Z,16.31
2017-07-25T07:49:04.170Z,16.31
2017-07-25T07:50:04.188Z,16.34
2017-07-25T07:51:04.203Z,16.34
2017-07-25T07:52:04.231Z,16.48
2017-07-25T07:53:04.264Z,16.28
2017-07-25T07:54:04.273Z,16.38
2017-07-25T07:55:18.904Z,16.41
2017-07-25T07:56:04.336Z,16.38
2017-07-25T07:57:04.049Z,16.35
2017-07-25T07:58:04.384Z,16.31
2017-07-25T07:59:04.104Z,16.43
2017-07-25T08:02:04.471Z,16.33
2017-07-25T08:03:19.099Z,16.41
2017-07-25T08:04:04.533Z,16.35
2017-07-25T08:05:04.549Z,16.28
2017-07-25T08:06:04.579Z,16.33
2017-07-25T08:07:04.275Z,16.31
2017-07-25T08:08:04.823Z,16.27
2017-07-25T08:09:04.640Z,16.33
2017-07-25T08:10:04.677Z,16.45
2017-07-25T08:11:04.693Z,16.43
2017-07-25T08:12:04.704Z,16.38
2017-07-25T08:13:04.742Z,16.23
2017-07-25T08:14:04.753Z,16.24
2017-07-25T08:15:04.794Z,16.21
2017-07-25T08:16:19.394Z,16.31
2017-07-25T08:17:19.437Z,16.41
2017-07-25T08:18:04.865Z,16.34
2017-07-25T08:19:04.859Z,16.24
2017-07-25T08:20:04.597Z,16.33
2017-07-25T08:21:04.930Z,16.27
2017-07-25T08:22:04.940Z,16.31
2017-07-25T08:23:05.025Z,16.35
2017-07-25T08:24:05.044Z,16.35
2017-07-25T08:25:19.612Z,16.3
2017-07-25T08:26:05.049Z,16.3
2017-07-25T08:28:05.100Z,16.25
2017-07-25T08:29:05.118Z,16.31
2017-07-25T08:30:19.745Z,16.39
2017-07-25T08:31:05.170Z,16.38
2017-07-25T08:32:05.166Z,16.38
2017-07-25T08:33:05.228Z,16.34
2017-07-25T08:34:05.225Z,16.28
2017-07-25T08:35:04.947Z,16.3
2017-07-25T08:36:19.881Z,16.43
2017-07-25T08:37:05.284Z,16.45
2017-07-25T08:38:19.927Z,16.41
2017-07-25T08:40:05.051Z,16.31
2017-07-25T08:42:05.116Z,16.35
2017-07-25T08:43:20.046Z,16.39
2017-07-25T08:44:05.165Z,16.43
2017-07-25T08:45:05.235Z,16.39
2017-07-25T08:46:05.524Z,16.46
2017-07-25T08:47:05.219Z,16.43
2017-07-25T08:48:05.272Z,16.33
2017-07-25T08:50:05.612Z,16.43
2017-07-25T08:51:05.640Z,16.39
2017-07-25T08:52:05.641Z,16.31
2017-07-25T08:53:05.678Z,16.35
2017-07-25T08:54:05.391Z,16.56
2017-07-25T08:55:06.058Z,16.67
2017-07-25T08:56:20.049Z,16.81
2017-07-25T08:57:05.153Z,16.78
2017-07-25T08:59:20.414Z,16.88
2017-07-25T09:00:05.536Z,16.96
2017-07-25T09:01:05.874Z,17.11
2017-07-25T09:03:05.936Z,16.88
2017-07-25T09:05:05.975Z,16.66
2017-07-25T09:06:05.984Z,16.66
2017-07-25T09:07:06.020Z,16.66
2017-07-25T09:08:06.046Z,16.61
2017-07-25T09:09:06.073Z,16.52
2017-07-25T09:10:05.784Z,16.52
2017-07-25T09:11:06.105Z,16.49
2017-07-25T09:12:20.790Z,16.56
2017-07-25T09:13:06.150Z,16.6
2017-07-25T09:14:06.186Z,16.46
2017-07-25T09:15:20.809Z,16.41
2017-07-25T09:16:06.280Z,16.38
2017-07-25T09:17:20.848Z,16.49
2017-07-25T09:18:06.287Z,16.43
2017-07-25T09:19:06.303Z,16.43
2017-07-25T09:20:06.334Z,16.34
2017-07-25T09:21:06.366Z,16.35
2017-07-25T09:22:06.062Z,16.39
2017-07-25T09:23:06.427Z,16.31
2017-07-25T09:24:06.413Z,16.35
2017-07-25T09:25:06.142Z,16.31
2017-07-25T09:26:21.072Z,16.42
2017-07-25T09:28:06.213Z,16.46
2017-07-25T09:29:06.226Z,16.45
2017-07-25T09:30:21.173Z,16.41
2017-07-25T09:31:06.278Z,16.48
2017-07-25T09:32:06.617Z,16.56
2017-07-25T09:33:06.630Z,16.6
2017-07-25T09:34:06.722Z,16.68
2017-07-25T09:35:06.689Z,16.98
2017-07-25T09:36:06.730Z,17.06
2017-07-25T09:37:06.730Z,17.23
2017-07-25T09:38:06.750Z,17.28
2017-07-25T09:39:06.781Z,17.21
2017-07-25T09:40:06.811Z,17.22
2017-07-25T09:41:06.841Z,17.41
2017-07-25T09:42:06.858Z,17.51
2017-07-25T09:43:06.576Z,17.58
2017-07-25T09:44:06.909Z,17.58
2017-07-25T09:45:06.925Z,17.48
2017-07-25T09:46:21.567Z,17.4
2017-07-25T09:47:06.669Z,17.34
2017-07-25T09:48:06.715Z,17.28
2017-07-25T09:49:06.722Z,17.18
2017-07-25T09:50:06.749Z,17.08
2017-07-25T09:51:06.770Z,17.07
2017-07-25T09:52:06.779Z,17.07
2017-07-25T09:53:06.818Z,17.14
2017-07-25T09:54:06.880Z,17.18
2017-07-25T09:55:06.872Z,17.22
2017-07-25T09:56:06.880Z,17.22
2017-07-25T09:57:07.224Z,17.12
2017-07-25T09:58:21.842Z,17.22
2017-07-25T09:59:06.972Z,17.19
2017-07-25T10:00:06.979Z,17.19
2017-07-25T10:01:21.609Z,17.15
2017-07-25T10:02:21.640Z,17.11
2017-07-25T10:04:07.403Z,17.12
2017-07-25T10:05:06.853Z,17.23
2017-07-25T10:06:22.032Z,17.49
2017-07-25T10:07:22.069Z,17.71
2017-07-25T10:08:06.868Z,17.81
2017-07-25T10:09:07.566Z,17.77
2017-07-25T10:10:07.565Z,17.87
2017-07-25T10:11:22.160Z,18.02
2017-07-25T10:12:07.281Z,18.11
2017-07-25T10:13:22.212Z,18.32
2017-07-25T10:14:07.638Z,18.39
2017-07-25T10:15:07.359Z,18.44
2017-07-25T10:16:07.691Z,18.33
2017-07-25T10:17:07.712Z,18.42
2017-07-25T10:18:22.334Z,18.52
2017-07-25T10:19:07.762Z,18.75
2017-07-25T10:20:07.783Z,18.55
2017-07-25T10:21:07.869Z,18.58
2017-07-25T10:22:22.156Z,18.39
2017-07-25T10:23:07.857Z,18.57
2017-07-25T10:24:07.879Z,18.67
2017-07-25T10:25:07.918Z,18.58
2017-07-25T10:26:07.624Z,18.51
2017-07-25T10:27:07.964Z,18.5
2017-07-25T10:28:07.976Z,18.52
2017-07-25T10:29:08.009Z,18.54
2017-07-25T10:30:07.515Z,18.63
2017-07-25T10:32:08.100Z,18.41
2017-07-25T10:33:08.110Z,18.5
2017-07-25T10:34:22.743Z,18.48
2017-07-25T10:35:08.152Z,18.57
2017-07-25T10:36:08.180Z,18.78
2017-07-25T10:37:22.820Z,18.78
2017-07-25T10:38:22.842Z,18.84
2017-07-25T10:39:08.262Z,18.7
2017-07-25T10:40:08.286Z,18.72
2017-07-25T10:41:08.363Z,18.78
2017-07-25T10:42:08.340Z,18.7
2017-07-25T10:43:08.363Z,18.99
2017-07-25T10:44:08.075Z,19.07
2017-07-25T10:45:08.399Z,19.26
2017-07-25T10:46:08.430Z,19.41
2017-07-25T10:47:08.473Z,19.31
2017-07-25T10:48:08.488Z,19.32
2017-07-25T10:49:08.532Z,19.44
2017-07-25T10:50:23.129Z,19.5
2017-07-25T10:51:08.573Z,19.59
2017-07-25T10:52:08.603Z,19.63
2017-07-25T10:53:23.205Z,19.5
2017-07-25T10:54:08.697Z,19.18
2017-07-25T10:55:08.670Z,19.16
2017-07-25T10:57:08.404Z,19.11
2017-07-25T10:58:08.441Z,19.08
2017-07-25T10:59:23.365Z,19.1
2017-07-25T11:00:23.392Z,19.06
2017-07-25T11:01:08.512Z,18.82
2017-07-25T11:02:08.528Z,19
2017-07-25T11:03:08.871Z,19.06
2017-07-25T11:04:08.568Z,19.02
2017-07-25T11:05:23.547Z,19.28
2017-07-25T11:06:23.536Z,19.21
2017-07-25T11:07:08.709Z,19.19
2017-07-25T11:08:08.986Z,19.11
2017-07-25T11:09:09.019Z,19.14
2017-07-25T11:10:09.035Z,19.02
2017-07-25T11:11:09.078Z,19.21
2017-07-25T11:12:23.698Z,19.58
2017-07-25T11:13:09.129Z,19.77
2017-07-25T11:14:09.175Z,20.05
2017-07-25T11:15:09.156Z,20.24
2017-07-25T11:17:09.209Z,20.16
2017-07-25T11:18:08.944Z,19.78
2017-07-25T11:19:09.254Z,19.94
2017-07-25T11:20:09.300Z,19.84
2017-07-25T11:21:09.010Z,19.37
2017-07-25T11:22:09.416Z,18.9
2017-07-25T11:23:09.366Z,18.84
2017-07-25T11:24:09.387Z,18.73
2017-07-25T11:25:09.426Z,18.92
2017-07-25T11:26:09.451Z,18.88
2017-07-25T11:27:09.485Z,18.7
2017-07-25T11:28:09.238Z,18.84
2017-07-25T11:29:09.529Z,18.75
2017-07-25T11:30:09.241Z,18.85
2017-07-25T11:31:09.584Z,18.76
2017-07-25T11:32:09.607Z,18.7
2017-07-25T11:33:09.639Z,18.66
2017-07-25T11:34:09.661Z,18.41
2017-07-25T11:35:09.732Z,18.42
2017-07-25T11:36:09.449Z,18.42
2017-07-25T11:37:24.327Z,18.41
2017-07-25T11:38:09.762Z,18.44
2017-07-25T11:39:10.021Z,18.37
2017-07-25T11:40:09.482Z,18.41
2017-07-25T11:41:09.830Z,18.42
2017-07-25T11:42:09.856Z,18.41
2017-07-25T11:43:09.891Z,18.42
2017-07-25T11:44:09.896Z,18.37
2017-07-25T11:45:24.372Z,18.39
2017-07-25T11:46:09.955Z,18.48
2017-07-25T11:47:09.971Z,18.39
2017-07-25T11:49:09.716Z,18.33
2017-07-25T11:50:09.750Z,18.52
2017-07-25T11:51:10.069Z,18.6
2017-07-25T11:52:10.152Z,18.58
2017-07-25T11:53:24.720Z,18.78
2017-07-25T11:54:10.144Z,18.82
2017-07-25T11:55:10.163Z,18.58
2017-07-25T11:56:10.511Z,18.41
2017-07-25T11:57:10.339Z,18.39
2017-07-25T11:58:09.944Z,18.45
2017-07-25T11:59:10.317Z,18.57
2017-07-25T12:00:10.312Z,18.5
2017-07-25T12:01:10.318Z,18.5
2017-07-25T12:02:10.345Z,18.58
2017-07-25T12:03:10.376Z,18.54
2017-07-25T12:04:10.410Z,18.55
2017-07-25T12:05:25.022Z,18.75
2017-07-25T12:06:10.461Z,18.8
2017-07-25T12:07:10.479Z,18.78
2017-07-25T12:09:25.124Z,18.85
2017-07-25T12:10:10.543Z,18.84
2017-07-25T12:11:10.629Z,18.81
2017-07-25T12:12:10.612Z,18.75
2017-07-25T12:13:10.631Z,18.58
2017-07-25T12:14:10.344Z,18.58
2017-07-25T12:15:10.733Z,18.6
2017-07-25T12:16:10.428Z,18.57
2017-07-25T12:17:10.709Z,18.55
2017-07-25T12:18:10.742Z,18.55
2017-07-25T12:19:10.754Z,18.39
2017-07-25T12:20:10.804Z,18.3
2017-07-25T12:21:10.822Z,18.41
2017-07-25T12:22:10.851Z,18.41
2017-07-25T12:23:10.951Z,18.39
2017-07-25T12:24:10.889Z,18.39
2017-07-25T12:25:25.511Z,18.37
2017-07-25T12:26:10.959Z,18.39
2017-07-25T12:27:10.968Z,18.44
2017-07-25T12:28:10.692Z,18.26
2017-07-25T12:29:11.038Z,18.27
2017-07-25T12:30:25.846Z,18.23
2017-07-25T12:31:11.067Z,18.17
2017-07-25T12:32:11.089Z,18.36
2017-07-25T12:33:11.118Z,18.41
2017-07-25T12:34:25.743Z,18.27
2017-07-25T12:35:11.223Z,18.3
2017-07-25T12:36:11.192Z,18.41
2017-07-25T12:37:11.276Z,18.41
2017-07-25T12:38:11.245Z,18.32
2017-07-25T12:39:11.273Z,18.36
2017-07-25T12:40:25.942Z,18.42
2017-07-25T12:41:11.318Z,18.41
2017-07-25T12:42:11.450Z,18.41
2017-07-25T12:43:11.415Z,18.45
2017-07-25T12:44:25.999Z,18.55
2017-07-25T12:45:11.405Z,18.58
2017-07-25T12:46:11.448Z,18.52
2017-07-25T12:47:26.052Z,18.67
2017-07-25T12:48:11.488Z,18.5
2017-07-25T12:49:11.522Z,18.48
2017-07-25T12:50:11.231Z,18.51
2017-07-25T12:51:11.570Z,18.7
2017-07-25T12:52:11.275Z,18.69
2017-07-25T12:53:11.617Z,18.69
2017-07-25T12:54:11.639Z,18.66
2017-07-25T12:55:11.653Z,18.81
2017-07-25T12:56:11.381Z,18.73
2017-07-25T12:57:11.703Z,18.65
2017-07-25T12:58:11.737Z,18.5
2017-07-25T12:59:11.453Z,18.23
2017-07-25T13:00:11.526Z,17.99
2017-07-25T13:01:11.856Z,17.96
2017-07-25T13:02:11.582Z,17.75
2017-07-25T13:03:11.842Z,17.66
2017-07-25T13:04:11.260Z,17.68
2017-07-25T13:05:11.964Z,17.59
2017-07-25T13:06:11.983Z,17.51
2017-07-25T13:07:11.971Z,17.38
2017-07-25T13:08:11.663Z,17.25
2017-07-25T13:09:11.399Z,17.4
2017-07-25T13:10:11.711Z,17.4
2017-07-25T13:11:12.059Z,17.63
2017-07-25T13:12:26.678Z,17.77
2017-07-25T13:14:12.139Z,17.77
2017-07-25T13:15:12.146Z,17.64
2017-07-25T13:16:12.180Z,17.48
2017-07-25T13:17:12.194Z,17.33
2017-07-25T13:18:12.225Z,17.33
2017-07-25T13:19:12.239Z,17.55
2017-07-25T13:20:12.286Z,17.54
2017-07-25T13:21:12.293Z,17.54
2017-07-25T13:22:12.321Z,17.62
2017-07-25T13:23:12.358Z,17.38
2017-07-25T13:24:12.376Z,17.3
2017-07-25T13:25:12.398Z,17.22
2017-07-25T13:26:12.467Z,17.19
2017-07-25T13:27:12.449Z,16.91
2017-07-25T13:28:27.079Z,16.85
2017-07-25T13:29:12.189Z,16.82
2017-07-25T13:30:12.533Z,16.88
2017-07-25T13:31:12.231Z,17.03
2017-07-25T13:32:12.588Z,16.94
2017-07-25T13:33:12.582Z,16.93
2017-07-25T13:34:12.322Z,16.97
2017-07-25T13:35:12.645Z,17
2017-07-25T13:36:12.665Z,17.07
2017-07-25T13:37:27.293Z,17.25
2017-07-25T13:38:12.698Z,17.25
2017-07-25T13:39:12.747Z,17.23
2017-07-25T13:40:12.758Z,17.18
2017-07-25T13:41:12.480Z,16.98
2017-07-25T13:42:12.807Z,17
2017-07-25T13:43:12.848Z,16.83
2017-07-25T13:44:27.461Z,16.7